Time;durP1;ratioP1;P1;durP2;ratioP2;P2;SDS_P1;SDS_P2;PMS_P1;PMS_P2;Temp;Humidity;BMP_temperature;BMP_pressure;BME280_temperature;BME280_humidity;BME280_pressure;Samples;Min_cycle;Max_cycle;Signal;HPM_P1;HPM_P2
2022/09/04 00:00:05;;;;;;;;;18.67;17.00;;;;;;;;5040077;28;45402;-69
2022/09/04 00:02:40;;;;;;;;;18.33;15.67;;;;;;;;5051730;28;45500;-69
2022/09/04 00:05:15;;;;;;;;;16.33;16.33;;;;;;;;5050361;28;45516;-68
2022/09/04 00:07:54;;;;;;;;;18.33;14.67;;;;;;;;5040522;28;45382;-69
2022/09/04 00:10:29;;;;;;;;;17.67;15.33;;;;;;;;5055181;28;45564;-68
2022/09/04 00:13:03;;;;;;;;;14.67;14.67;;;;;;;;5051605;28;46436;-69
2022/09/04 00:15:33;;;;;;;;;15.67;12.67;;;;;;;;5042769;28;45541;-67
2022/09/04 00:18:02;;;;;;;;;14.67;13.33;;;;;;;;5055111;28;45271;-68
2022/09/04 00:20:42;;;;;;;;;15.00;15.00;;;;;;;;5043130;28;45505;-70
2022/09/04 00:23:39;;;;;;;;;13.67;12.67;;;;;;;;5055475;28;45456;-68
2022/09/04 00:26:13;;;;;;;;;10.33;10.33;;;;;;;;5024718;28;45643;-71
2022/09/04 00:28:49;;;;;;;;;11.00;10.67;;;;;;;;5055475;28;45587;-67
2022/09/04 00:31:17;;;;;;;;;7.33;7.33;;;;;;;;5054445;28;45646;-67
2022/09/04 00:33:54;;;;;;;;;12.33;11.00;;;;;;;;5054598;28;46493;-68
2022/09/04 00:36:21;;;;;;;;;10.00;9.33;;;;;;;;5056489;28;45720;-69
2022/09/04 00:38:49;;;;;;;;;13.00;10.67;;;;;;;;5061739;28;45829;-68
2022/09/04 00:41:29;;;;;;;;;12.00;10.33;;;;;;;;5034417;28;45873;-67
2022/09/04 00:44:13;;;;;;;;;10.33;9.67;;;;;;;;5054140;28;45729;-68
2022/09/04 00:46:46;;;;;;;;;13.33;12.33;;;;;;;;5053741;28;45366;-67
2022/09/04 00:49:23;;;;;;;;;11.00;9.00;;;;;;;;5053963;28;45773;-68
2022/09/04 00:51:48;;;;;;;;;9.00;9.00;;;;;;;;5055015;28;45557;-68
2022/09/04 00:54:14;;;;;;;;;13.33;11.33;;;;;;;;5059356;28;46381;-68
2022/09/04 00:56:57;;;;;;;;;11.00;9.00;;;;;;;;5062401;28;45692;-67
2022/09/04 00:59:41;;;;;;;;;9.33;8.33;;;;;;;;5048406;28;45648;-68
2022/09/04 01:02:36;;;;;;;;;10.00;7.67;;;;;;;;5027271;28;46993;-68
2022/09/04 01:05:20;;;;;;;;;9.00;9.00;;;;;;;;5033605;28;45592;-67
2022/09/04 01:07:55;;;;;;;;;9.33;9.33;;;;;;;;5036399;28;46111;-67
2022/09/04 01:10:39;;;;;;;;;9.33;9.33;;;;;;;;5062089;28;45629;-68
2022/09/04 01:13:15;;;;;;;;;10.67;8.33;;;;;;;;5053394;28;45914;-69
2022/09/04 01:15:40;;;;;;;;;9.33;7.67;;;;;;;;5053736;28;45410;-67
2022/09/04 01:18:15;;;;;;;;;10.33;10.33;;;;;;;;5054027;28;45260;-67
2022/09/04 01:20:52;;;;;;;;;8.67;8.67;;;;;;;;5032759;28;45524;-68
2022/09/04 01:23:36;;;;;;;;;9.00;8.33;;;;;;;;5048039;28;45360;-67
2022/09/04 01:26:01;;;;;;;;;1.33;0.00;;;;;;;;5049356;28;46050;-67
2022/09/04 01:28:32;;;;;;;;;9.67;8.00;;;;;;;;5051785;28;45743;-67
2022/09/04 01:31:10;;;;;;;;;8.33;6.67;;;;;;;;5059330;28;45841;-68
2022/09/04 01:33:53;;;;;;;;;8.00;7.00;;;;;;;;5054058;28;45328;-68
2022/09/04 01:36:31;;;;;;;;;8.67;7.67;;;;;;;;5048145;28;45494;-67
2022/09/04 01:38:57;;;;;;;;;7.67;7.33;;;;;;;;5046558;28;45334;-68
2022/09/04 01:41:25;;;;;;;;;9.67;9.00;;;;;;;;5050245;28;45502;-68
2022/09/04 01:43:51;;;;;;;;;8.00;6.33;;;;;;;;5053822;28;45754;-68
2022/09/04 01:46:28;;;;;;;;;10.67;7.67;;;;;;;;5049002;28;45630;-67
2022/09/04 01:48:57;;;;;;;;;9.67;6.67;;;;;;;;5052627;28;45444;-67
2022/09/04 01:51:38;;;;;;;;;7.33;6.67;;;;;;;;5053818;28;45469;-68
2022/09/04 01:54:09;;;;;;;;;8.00;6.00;;;;;;;;5022792;28;45880;-68
2022/09/04 01:56:47;;;;;;;;;4.67;4.67;;;;;;;;5055439;28;45382;-68
2022/09/04 01:59:21;;;;;;;;;6.00;5.00;;;;;;;;5055358;28;45458;-67
2022/09/04 02:01:46;;;;;;;;;5.00;5.00;;;;;;;;5051893;28;45439;-67
2022/09/04 02:04:21;;;;;;;;;5.00;5.00;;;;;;;;5053661;28;45622;-67
2022/09/04 02:06:59;;;;;;;;;7.33;6.67;;;;;;;;5052726;28;45812;-67
2022/09/04 02:09:40;;;;;;;;;5.00;4.00;;;;;;;;5055139;28;45315;-68
2022/09/04 02:12:28;;;;;;;;;5.33;5.00;;;;;;;;5053532;28;45299;-68
2022/09/04 02:15:02;;;;;;;;;6.33;4.33;;;;;;;;5046922;28;45491;-68
2022/09/04 02:17:48;;;;;;;;;5.67;3.00;;;;;;;;5035330;28;47871;-66
2022/09/04 02:20:23;;;;;;;;;4.67;3.67;;;;;;;;5053336;28;45852;-67
2022/09/04 02:22:54;;;;;;;;;5.00;3.33;;;;;;;;5044041;28;45505;-68
2022/09/04 02:25:31;;;;;;;;;8.33;5.00;;;;;;;;5053003;28;46100;-68
2022/09/04 02:28:10;;;;;;;;;4.33;3.33;;;;;;;;5053303;28;45837;-67
2022/09/04 02:30:56;;;;;;;;;6.00;2.67;;;;;;;;5034093;28;45974;-68
2022/09/04 02:33:24;;;;;;;;;4.00;4.00;;;;;;;;5045770;28;45523;-68
2022/09/04 02:35:49;;;;;;;;;3.33;3.33;;;;;;;;5053037;28;45538;-68
2022/09/04 02:38:35;;;;;;;;;5.00;4.00;;;;;;;;5052325;28;45414;-69
2022/09/04 02:41:14;;;;;;;;;6.00;4.00;;;;;;;;5039174;28;45388;-67
2022/09/04 02:43:58;;;;;;;;;5.00;3.00;;;;;;;;5052907;28;45499;-68
2022/09/04 02:46:24;;;;;;;;;4.00;4.00;;;;;;;;5052921;28;45335;-68
2022/09/04 02:49:12;;;;;;;;;3.33;3.33;;;;;;;;5033576;28;46659;-68
2022/09/04 02:51:57;;;;;;;;;9.33;6.00;;;;;;;;5005085;28;45753;-68
2022/09/04 02:54:42;;;;;;;;;5.00;3.00;;;;;;;;5042754;28;45402;-68
2022/09/04 02:57:26;;;;;;;;;3.00;3.00;;;;;;;;5044707;28;45722;-68
2022/09/04 03:00:18;;;;;;;;;6.00;6.00;;;;;;;;5052844;28;46322;-69
2022/09/04 03:02:49;;;;;;;;;4.33;4.00;;;;;;;;5034150;28;45691;-67
2022/09/04 03:05:24;;;;;;;;;5.67;4.33;;;;;;;;5051686;28;45804;-69
2022/09/04 03:08:02;;;;;;;;;4.00;4.00;;;;;;;;5052427;28;45648;-67
2022/09/04 03:10:30;;;;;;;;;3.00;3.00;;;;;;;;5045441;28;46371;-67
2022/09/04 03:13:01;;;;;;;;;3.33;2.67;;;;;;;;5054540;28;45382;-68
2022/09/04 03:15:26;;;;;;;;;4.33;4.33;;;;;;;;5046578;28;46408;-68
2022/09/04 03:17:57;;;;;;;;;6.67;4.67;;;;;;;;5052755;28;45417;-67
2022/09/04 03:20:27;;;;;;;;;4.67;3.67;;;;;;;;5033936;28;46351;-69
2022/09/04 03:22:53;;;;;;;;;3.33;3.33;;;;;;;;5052660;28;45643;-67
2022/09/04 03:25:36;;;;;;;;;5.33;5.33;;;;;;;;5051993;28;45666;-67
2022/09/04 03:28:02;;;;;;;;;7.00;5.50;;;;;;;;5033707;28;45693;-68
2022/09/04 03:30:30;;;;;;;;;9.67;5.00;;;;;;;;5052481;28;45669;-68
2022/09/04 03:33:13;;;;;;;;;3.67;3.67;;;;;;;;5058427;28;45783;-68
2022/09/04 03:35:43;;;;;;;;;5.00;5.00;;;;;;;;5052645;28;45407;-67
2022/09/04 03:38:08;;;;;;;;;3.00;3.00;;;;;;;;5052030;28;45672;-67
2022/09/04 03:40:52;;;;;;;;;5.00;5.00;;;;;;;;5046007;28;46728;-67
2022/09/04 03:43:40;;;;;;;;;5.33;5.33;;;;;;;;5051600;28;45653;-67
2022/09/04 03:46:06;;;;;;;;;3.33;3.33;;;;;;;;5036464;28;45735;-69
2022/09/04 03:48:37;;;;;;;;;5.67;4.00;;;;;;;;5057676;28;45894;-68
2022/09/04 03:51:02;;;;;;;;;4.00;3.00;;;;;;;;5057836;28;45642;-68
2022/09/04 03:53:51;;;;;;;;;4.33;3.67;;;;;;;;5054662;28;45596;-69
2022/09/04 03:56:17;;;;;;;;;3.33;3.33;;;;;;;;5039119;28;45846;-70
2022/09/04 03:58:48;;;;;;;;;5.67;5.00;;;;;;;;5061814;27;45731;-68
2022/09/04 04:01:32;;;;;;;;;5.00;5.00;;;;;;;;5044635;28;47119;-67
2022/09/04 04:04:06;;;;;;;;;6.00;5.00;;;;;;;;5053290;28;45718;-68
2022/09/04 04:06:34;;;;;;;;;3.33;3.33;;;;;;;;5056972;28;45322;-67
2022/09/04 04:09:06;;;;;;;;;5.00;5.00;;;;;;;;5055307;27;45933;-68
2022/09/04 04:11:41;;;;;;;;;6.00;5.00;;;;;;;;5052462;28;46372;-67
2022/09/04 04:14:29;;;;;;;;;5.33;5.33;;;;;;;;5050804;28;45560;-67
2022/09/04 04:16:54;;;;;;;;;6.00;5.33;;;;;;;;5055707;28;45599;-68
2022/09/04 04:19:43;;;;;;;;;6.00;5.00;;;;;;;;5047127;28;46755;-67
2022/09/04 04:22:31;;;;;;;;;5.33;4.00;;;;;;;;5055514;28;45565;-68
2022/09/04 04:25:15;;;;;;;;;4.67;4.67;;;;;;;;5034176;28;45417;-68
2022/09/04 04:27:59;;;;;;;;;6.33;5.00;;;;;;;;5055067;28;45452;-68
2022/09/04 04:30:28;;;;;;;;;5.33;5.33;;;;;;;;5030159;28;47039;-67
2022/09/04 04:33:12;;;;;;;;;5.00;5.00;;;;;;;;5056114;28;45761;-66
2022/09/04 04:36:11;;;;;;;;;6.00;6.00;;;;;;;;5048864;28;45395;-65
2022/09/04 04:38:52;;;;;;;;;6.33;4.00;;;;;;;;5011902;28;45565;-64
2022/09/04 04:42:02;;;;;;;;;6.67;5.67;;;;;;;;5055130;28;45240;-65
2022/09/04 04:45:48;;;;;;;;;5.67;5.00;;;;;;;;5053198;28;46364;-64
2022/09/04 04:47:18;;;;;;;;;9.67;8.00;;;;;;;;5054996;28;46311;-67
2022/09/04 04:49:58;;;;;;;;;9.33;6.00;;;;;;;;5053402;28;45653;-66
2022/09/04 04:52:24;;;;;;;;;6.67;6.33;;;;;;;;5055570;28;45996;-65
2022/09/04 04:54:56;;;;;;;;;4.67;4.67;;;;;;;;5049076;28;45687;-65
2022/09/04 04:57:22;;;;;;;;;6.67;6.67;;;;;;;;5051180;28;45397;-64
2022/09/04 05:00:05;;;;;;;;;5.00;5.00;;;;;;;;5053607;28;45612;-64
2022/09/04 05:02:50;;;;;;;;;7.67;6.67;;;;;;;;5029676;28;45975;-65
2022/09/04 05:05:15;;;;;;;;;4.67;4.67;;;;;;;;5053346;28;46455;-65
2022/09/04 05:07:45;;;;;;;;;5.67;5.67;;;;;;;;5054369;28;45780;-66
2022/09/04 05:10:13;;;;;;;;;7.67;5.67;;;;;;;;5059075;28;45829;-63
2022/09/04 05:12:41;;;;;;;;;6.33;5.67;;;;;;;;5035569;28;46154;-64
2022/09/04 05:15:07;;;;;;;;;6.33;5.67;;;;;;;;5052644;28;45385;-64
2022/09/04 05:17:39;;;;;;;;;6.67;6.67;;;;;;;;5056528;28;45407;-64
2022/09/04 05:20:14;;;;;;;;;7.67;5.00;;;;;;;;5055664;28;45891;-66
2022/09/04 05:22:45;;;;;;;;;5.33;5.33;;;;;;;;5054547;28;45368;-64
2022/09/04 05:25:16;;;;;;;;;4.00;4.00;;;;;;;;5038323;28;48540;-64
2022/09/04 05:27:51;;;;;;;;;7.00;4.67;;;;;;;;5058265;28;45668;-64
2022/09/04 05:30:22;;;;;;;;;5.33;4.00;;;;;;;;5054536;28;45801;-65
2022/09/04 05:32:50;;;;;;;;;5.00;5.00;;;;;;;;5050631;28;45503;-67
2022/09/04 05:35:16;;;;;;;;;5.00;5.00;;;;;;;;5042193;28;47308;-64
2022/09/04 05:37:54;;;;;;;;;7.67;6.00;;;;;;;;5031564;28;45486;-64
2022/09/04 05:40:19;;;;;;;;;4.00;4.00;;;;;;;;5054240;28;45880;-64
2022/09/04 05:43:12;;;;;;;;;4.33;4.33;;;;;;;;5049504;28;45768;-64
2022/09/04 05:45:46;;;;;;;;;5.67;5.00;;;;;;;;5045792;28;48041;-65
2022/09/04 05:48:17;;;;;;;;;6.00;4.67;;;;;;;;5053463;28;45770;-65
2022/09/04 05:51:02;;;;;;;;;6.33;5.00;;;;;;;;5053973;28;45296;-70
2022/09/04 05:53:46;;;;;;;;;4.00;4.00;;;;;;;;5035643;28;45931;-67
2022/09/04 05:56:20;;;;;;;;;5.67;5.67;;;;;;;;5053548;28;45336;-65
2022/09/04 05:59:04;;;;;;;;;8.33;6.00;;;;;;;;5061968;28;45701;-66
2022/09/04 06:01:49;;;;;;;;;6.33;6.33;;;;;;;;5050798;28;45443;-65
2022/09/04 06:04:27;;;;;;;;;21.00;16.67;;;;;;;;5030898;27;45693;-65
2022/09/04 06:07:00;;;;;;;;;33.33;28.33;;;;;;;;5035440;28;47333;-67
2022/09/04 06:09:41;;;;;;;;;5.33;5.33;;;;;;;;5025145;28;45957;-65
2022/09/04 06:12:25;;;;;;;;;5.33;4.00;;;;;;;;5026688;28;45599;-65
2022/09/04 06:14:54;;;;;;;;;8.00;5.67;;;;;;;;5038459;28;45699;-66
2022/09/04 06:17:27;;;;;;;;;7.67;6.67;;;;;;;;5035872;28;46814;-65
2022/09/04 06:20:12;;;;;;;;;4.33;4.33;;;;;;;;5040683;28;45366;-67
2022/09/04 06:22:49;;;;;;;;;4.00;4.00;;;;;;;;5045871;28;45774;-65
2022/09/04 06:25:23;;;;;;;;;6.67;6.00;;;;;;;;5040144;28;45972;-67
2022/09/04 06:28:07;;;;;;;;;6.67;6.33;;;;;;;;5046137;28;45652;-68
2022/09/04 06:30:42;;;;;;;;;7.67;4.67;;;;;;;;5042316;28;45729;-66
2022/09/04 06:33:25;;;;;;;;;4.00;4.00;;;;;;;;5041704;28;45528;-68
2022/09/04 06:35:51;;;;;;;;;7.00;7.00;;;;;;;;5043161;28;45945;-69
2022/09/04 06:38:19;;;;;;;;;5.25;4.50;;;;;;;;5045103;28;46036;-66
2022/09/04 06:40:53;;;;;;;;;4.50;4.50;;;;;;;;5046894;28;45506;-67
2022/09/04 06:43:35;;;;;;;;;5.25;4.50;;;;;;;;5042950;28;46385;-65
2022/09/04 06:46:12;;;;;;;;;5.25;4.50;;;;;;;;5045114;28;45932;-65
2022/09/04 06:48:37;;;;;;;;;4.50;4.00;;;;;;;;5043037;27;45598;-65
2022/09/04 06:51:05;;;;;;;;;6.50;4.00;;;;;;;;5045219;28;45512;-67
2022/09/04 06:53:34;;;;;;;;;1.75;1.75;;;;;;;;5037298;28;45942;-66
2022/09/04 06:56:10;;;;;;;;;5.50;3.50;;;;;;;;5046177;28;45405;-66
2022/09/04 06:58:54;;;;;;;;;7.00;5.75;;;;;;;;5043212;28;47981;-66
2022/09/04 07:01:39;;;;;;;;;4.25;4.00;;;;;;;;5043037;27;45386;-66
2022/09/04 07:04:23;;;;;;;;;3.50;3.50;;;;;;;;5046923;27;45953;-67
2022/09/04 07:07:07;;;;;;;;;4.75;3.50;;;;;;;;5038693;28;47114;-67
2022/09/04 07:09:41;;;;;;;;;4.00;4.00;;;;;;;;5038448;28;46535;-67
2022/09/04 07:12:16;;;;;;;;;5.50;4.75;;;;;;;;5038631;28;45517;-67
2022/09/04 07:14:53;;;;;;;;;3.50;3.00;;;;;;;;5045826;28;45486;-67
2022/09/04 07:17:39;;;;;;;;;3.00;3.00;;;;;;;;5048372;28;45735;-67
2022/09/04 07:20:16;;;;;;;;;5.00;5.00;;;;;;;;5050172;28;46114;-65
2022/09/04 07:22:44;;;;;;;;;4.75;4.00;;;;;;;;5051349;28;45873;-69
2022/09/04 07:25:09;;;;;;;;;8.67;6.00;;;;;;;;5048123;28;45417;-64
2022/09/04 07:27:44;;;;;;;;;4.50;4.50;;;;;;;;5051333;28;45425;-64
2022/09/04 07:30:11;;;;;;;;;3.50;3.50;;;;;;;;5054531;28;45325;-64
2022/09/04 07:32:39;;;;;;;;;6.25;6.25;;;;;;;;5052489;28;45823;-66
2022/09/04 07:35:16;;;;;;;;;5.67;5.67;;;;;;;;5056951;28;45444;-69
2022/09/04 07:37:47;;;;;;;;;5.00;5.00;;;;;;;;5053986;28;45551;-69
2022/09/04 07:40:18;;;;;;;;;5.00;5.00;;;;;;;;5053640;28;47052;-66
2022/09/04 07:42:43;;;;;;;;;4.00;4.00;;;;;;;;5048401;28;45435;-69
2022/09/04 07:45:21;;;;;;;;;8.00;6.00;;;;;;;;5054664;28;45470;-70
2022/09/04 07:47:54;;;;;;;;;5.50;3.75;;;;;;;;5047417;28;45658;-70
2022/09/04 07:50:24;;;;;;;;;5.75;4.50;;;;;;;;5051320;28;47058;-75
2022/09/04 07:53:00;;;;;;;;;3.25;3.25;;;;;;;;5038782;28;45931;-67
2022/09/04 07:55:37;;;;;;;;;5.50;5.50;;;;;;;;5046044;28;45425;-66
2022/09/04 07:58:12;;;;;;;;;6.67;5.67;;;;;;;;5044516;28;45802;-67
2022/09/04 08:00:56;;;;;;;;;4.00;4.00;;;;;;;;5047772;28;46166;-68
2022/09/04 08:03:30;;;;;;;;;3.75;3.75;;;;;;;;5053125;28;45835;-67
2022/09/04 08:06:10;;;;;;;;;45.67;35.00;;;;;;;;5045872;28;45705;-70
2022/09/04 08:09:03;;;;;;;;;7.33;5.67;;;;;;;;5047057;28;45638;-66
2022/09/04 08:11:31;;;;;;;;;41.00;34.67;;;;;;;;5047169;28;46054;-67
2022/09/04 08:14:17;;;;;;;;;11.33;9.00;;;;;;;;5050124;28;45702;-66
2022/09/04 08:16:55;;;;;;;;;11.67;9.33;;;;;;;;5020436;28;45552;-68
2022/09/04 08:19:44;;;;;;;;;6.67;5.33;;;;;;;;5045342;28;45741;-68
2022/09/04 08:22:12;;;;;;;;;8.00;8.00;;;;;;;;5024453;28;47368;-67
2022/09/04 08:24:40;;;;;;;;;6.00;5.50;;;;;;;;5046723;28;45532;-67
2022/09/04 08:27:15;;;;;;;;;7.00;6.67;;;;;;;;5041037;28;45661;-67
2022/09/04 08:29:44;;;;;;;;;6.67;5.00;;;;;;;;5024494;28;46483;-69
2022/09/04 08:32:21;;;;;;;;;6.33;6.33;;;;;;;;5043595;28;45834;-65
2022/09/04 08:35:05;;;;;;;;;7.25;6.00;;;;;;;;5043815;28;45837;-66
2022/09/04 08:37:48;;;;;;;;;6.75;5.00;;;;;;;;5041934;28;45416;-65
2022/09/04 08:40:32;;;;;;;;;4.00;4.00;;;;;;;;5037176;28;45702;-66
2022/09/04 08:43:04;;;;;;;;;4.67;3.67;;;;;;;;5035458;28;47761;-65
2022/09/04 08:45:47;;;;;;;;;5.00;5.00;;;;;;;;5053034;28;45404;-66
2022/09/04 08:48:12;;;;;;;;;5.33;4.00;;;;;;;;5045857;28;45683;-65
2022/09/04 08:50:50;;;;;;;;;3.33;3.00;;;;;;;;5052278;28;45747;-65
2022/09/04 08:53:51;;;;;;;;;3.00;3.00;;;;;;;;5053190;28;47111;-68
2022/09/04 08:56:29;;;;;;;;;4.00;2.50;;;;;;;;4995690;28;45521;-66
2022/09/04 08:59:03;;;;;;;;;16.67;14.33;;;;;;;;5039323;28;45685;-67
2022/09/04 09:01:28;;;;;;;;;6.00;3.25;;;;;;;;5033842;28;46662;-65
2022/09/04 09:04:12;;;;;;;;;10.33;10.33;;;;;;;;5052529;28;46071;-67
2022/09/04 09:07:04;;;;;;;;;4.25;3.00;;;;;;;;5051823;28;45753;-68
2022/09/04 09:09:29;;;;;;;;;4.75;3.25;;;;;;;;5053282;28;45886;-70
2022/09/04 09:11:57;;;;;;;;;5.00;3.75;;;;;;;;5052061;28;45686;-68
2022/09/04 09:14:23;;;;;;;;;3.50;3.50;;;;;;;;5053566;28;46392;-68
2022/09/04 09:17:11;;;;;;;;;6.33;6.00;;;;;;;;5059622;28;45251;-65
2022/09/04 09:19:39;;;;;;;;;4.50;3.25;;;;;;;;5046338;27;46106;-66
2022/09/04 09:22:23;;;;;;;;;2.00;2.00;;;;;;;;5046061;28;45935;-65
2022/09/04 09:24:59;;;;;;;;;3.00;3.00;;;;;;;;5030456;28;48372;-65
2022/09/04 09:27:30;;;;;;;;;3.00;3.00;;;;;;;;5044840;28;46019;-65
2022/09/04 09:30:15;;;;;;;;;2.00;2.00;;;;;;;;5049484;28;45663;-66
2022/09/04 09:32:59;;;;;;;;;2.25;2.00;;;;;;;;5048425;28;45762;-64
2022/09/04 09:35:24;;;;;;;;;3.00;2.25;;;;;;;;5044997;28;45918;-65
2022/09/04 09:38:08;;;;;;;;;3.00;3.00;;;;;;;;5051326;28;45792;-67
2022/09/04 09:40:45;;;;;;;;;2.67;2.67;;;;;;;;5048125;28;45456;-66
2022/09/04 09:43:34;;;;;;;;;5.00;3.00;;;;;;;;5036892;28;46236;-66
2022/09/04 09:46:18;;;;;;;;;4.00;4.00;;;;;;;;5041100;28;45593;-66
2022/09/04 09:48:43;;;;;;;;;2.67;2.67;;;;;;;;5047818;27;46035;-66
2022/09/04 09:51:27;;;;;;;;;2.67;2.67;;;;;;;;5042205;28;45902;-66
2022/09/04 09:54:11;;;;;;;;;4.67;2.00;;;;;;;;5036423;28;45695;-65
2022/09/04 09:57:06;;;;;;;;;2.00;2.00;;;;;;;;5041705;28;46294;-65
2022/09/04 09:59:34;;;;;;;;;2.75;2.00;;;;;;;;5018578;28;45842;-64
2022/09/04 10:02:11;;;;;;;;;3.75;2.00;;;;;;;;5048261;28;45455;-65
2022/09/04 10:04:49;;;;;;;;;4.00;3.67;;;;;;;;5042675;28;45717;-66
2022/09/04 10:07:18;;;;;;;;;3.00;2.00;;;;;;;;5033508;28;45643;-67
2022/09/04 10:10:02;;;;;;;;;3.00;3.00;;;;;;;;5026270;28;45994;-64
2022/09/04 10:12:57;;;;;;;;;5.00;2.00;;;;;;;;5045348;28;45801;-65
2022/09/04 10:18:12;;;;;;;;;3.00;2.00;;;;;;;;5013892;28;46250;-83
2022/09/04 10:20:59;;;;;;;;;3.00;3.00;;;;;;;;5009424;28;45748;-87
2022/09/04 10:23:36;;;;;;;;;3.00;2.25;;;;;;;;5010461;28;45271;-88
2022/09/04 10:26:56;;;;;;;;;;;;;;;;;;;;;
2022/09/04 10:29:44;;;;;;;;;4.67;3.33;;;;;;;;5015300;28;74036;-87
2022/09/04 10:32:19;;;;;;;;;2.00;2.00;;;;;;;;5017172;28;45450;-87
2022/09/04 10:35:08;;;;;;;;;4.00;4.00;;;;;;;;5015168;28;45465;-84
2022/09/04 10:37:52;;;;;;;;;3.25;3.00;;;;;;;;4996502;28;47436;-87
2022/09/04 10:40:47;;;;;;;;;5.00;4.00;;;;;;;;5008920;28;45913;-86
2022/09/04 10:43:22;;;;;;;;;5.00;3.67;;;;;;;;5011567;28;45400;-86
2022/09/04 10:45:57;;;;;;;;;4.00;4.00;;;;;;;;5014372;28;45816;-87
2022/09/04 10:48:52;;;;;;;;;6.33;3.33;;;;;;;;5020573;28;45754;-86
2022/09/04 10:51:35;;;;;;;;;3.00;3.00;;;;;;;;5014829;28;45616;-87
2022/09/04 10:54:22;;;;;;;;;3.00;3.00;;;;;;;;5000738;28;45366;-87
2022/09/04 10:57:07;;;;;;;;;3.33;2.33;;;;;;;;5020377;28;45464;-86
2022/09/04 10:59:57;;;;;;;;;3.25;3.00;;;;;;;;5017979;28;45909;-88
2022/09/04 11:06:28;;;;;;;;;4.00;4.00;;;;;;;;4957658;28;45576;-87
2022/09/04 11:12:32;;;;;;;;;;;;;;;;;;;;;
2022/09/04 11:18:24;;;;;;;;;;;;;;;;;;;;;
2022/09/04 11:21:06;;;;;;;;;3.00;3.00;;;;;;;;4963294;28;69040;-86
2022/09/04 11:23:54;;;;;;;;;2.25;2.25;;;;;;;;5016639;28;45400;-89
2022/09/04 11:26:26;;;;;;;;;2.00;2.00;;;;;;;;5036862;28;46830;-87
2022/09/04 11:32:34;;;;;;;;;3.00;3.00;;;;;;;;5039363;28;45506;-84
2022/09/04 11:35:28;;;;;;;;;2.75;2.75;;;;;;;;5021477;28;45698;-86
2022/09/04 11:38:27;;;;;;;;;2.25;2.25;;;;;;;;5042107;28;46380;-82
2022/09/04 11:41:14;;;;;;;;;;;;;;;;;;;;;
2022/09/04 11:43:56;;;;;;;;;3.00;3.00;;;;;;;;5032037;28;44868;-86
2022/09/04 11:46:31;;;;;;;;;5.25;3.00;;;;;;;;5021184;28;47123;-85
2022/09/04 11:49:19;;;;;;;;;4.25;4.00;;;;;;;;5019243;28;45373;-87
2022/09/04 11:51:50;;;;;;;;;3.67;3.67;;;;;;;;5019075;28;45401;-85
2022/09/04 11:54:45;;;;;;;;;3.33;3.33;;;;;;;;5020154;28;45490;-85
2022/09/04 11:57:22;;;;;;;;;5.00;4.67;;;;;;;;5019272;28;46171;-85
2022/09/04 12:00:10;;;;;;;;;4.67;4.00;;;;;;;;5038730;28;45566;-86
2022/09/04 12:03:06;;;;;;;;;4.00;4.00;;;;;;;;5018629;28;45397;-84
2022/09/04 12:05:45;;;;;;;;;3.00;3.00;;;;;;;;5033370;28;45842;-86
2022/09/04 12:08:36;;;;;;;;;5.00;5.00;;;;;;;;5020582;28;46045;-85
2022/09/04 12:11:23;;;;;;;;;4.00;4.00;;;;;;;;5040860;28;46105;-84
2022/09/04 12:14:01;;;;;;;;;3.33;3.33;;;;;;;;5020166;28;45471;-85
2022/09/04 12:17:06;;;;;;;;;;;;;;;;;;;;;
2022/09/04 12:19:51;;;;;;;;;4.00;4.00;;;;;;;;5029712;28;74629;-84
2022/09/04 12:22:59;;;;;;;;;3.67;3.67;;;;;;;;5009439;28;46748;-85
2022/09/04 12:25:46;;;;;;;;;2.33;2.00;;;;;;;;4940632;28;45885;-85
2022/09/04 12:28:20;;;;;;;;;7.33;5.33;;;;;;;;4956024;28;45469;-84
2022/09/04 12:31:05;;;;;;;;;5.00;4.33;;;;;;;;4982060;28;45753;-85
2022/09/04 12:33:37;;;;;;;;;4.67;4.00;;;;;;;;5010946;28;46747;-84
2022/09/04 12:36:21;;;;;;;;;7.00;5.33;;;;;;;;5035462;28;44821;-85
2022/09/04 12:38:52;;;;;;;;;5.67;5.00;;;;;;;;5026225;28;45453;-84
2022/09/04 12:41:30;;;;;;;;;3.33;3.33;;;;;;;;5016713;28;45412;-85
2022/09/04 12:44:07;;;;;;;;;3.67;3.67;;;;;;;;5006495;28;46893;-83
2022/09/04 12:46:55;;;;;;;;;5.00;4.00;;;;;;;;4999927;28;45599;-81
2022/09/04 12:49:49;;;;;;;;;5.00;3.00;;;;;;;;5011803;28;45831;-87
2022/09/04 12:53:04;;;;;;;;;;;;;;;;;;;;;
2022/09/04 12:55:46;;;;;;;;;4.00;4.00;;;;;;;;5020856;28;45735;-88
2022/09/04 12:58:51;;;;;;;;;;;;;;;;;;;;;
2022/09/04 13:02:01;;;;;;;;;;;;;;;;;;;;;
2022/09/04 13:04:50;;;;;;;;;7.67;6.00;;;;;;;;5021369;28;73220;-86
2022/09/04 13:07:23;;;;;;;;;5.67;4.00;;;;;;;;4994689;28;45732;-85
2022/09/04 13:10:03;;;;;;;;;4.00;4.00;;;;;;;;5006351;28;44828;-88
2022/09/04 13:12:49;;;;;;;;;3.33;3.33;;;;;;;;5024435;28;45430;-86
2022/09/04 13:15:21;;;;;;;;;5.00;5.00;;;;;;;;5034651;28;45548;-86
2022/09/04 13:17:57;;;;;;;;;2.00;2.00;;;;;;;;5040352;28;45907;-88
2022/09/04 13:20:39;;;;;;;;;1.67;1.67;;;;;;;;5029479;28;46061;-90
2022/09/04 13:23:35;;;;;;;;;5.00;5.00;;;;;;;;5027088;28;45379;-88
2022/09/04 13:27:02;;;;;;;;;7.00;4.67;;;;;;;;5041648;28;45515;-90
2022/09/04 13:30:03;;;;;;;;;5.00;5.00;;;;;;;;4968247;28;45473;-87
2022/09/04 13:32:47;;;;;;;;;3.67;3.67;;;;;;;;4982711;28;45637;-89
2022/09/04 13:35:33;;;;;;;;;3.67;3.33;;;;;;;;4974691;28;47847;-89
2022/09/04 13:38:29;;;;;;;;;3.67;3.67;;;;;;;;5001660;28;45518;-88
2022/09/04 13:41:45;;;;;;;;;3.67;3.67;;;;;;;;5037048;28;45950;-88
2022/09/04 13:47:42;;;;;;;;;4.00;4.00;;;;;;;;5038262;28;45948;-87
2022/09/04 13:50:28;;;;;;;;;4.67;4.67;;;;;;;;5027525;28;46217;-89
2022/09/04 13:53:16;;;;;;;;;5.33;3.00;;;;;;;;5040454;28;46233;-89
2022/09/04 13:55:48;;;;;;;;;6.33;4.00;;;;;;;;5061478;28;45329;-88
2022/09/04 13:58:37;;;;;;;;;4.00;4.00;;;;;;;;5031459;28;45992;-89
2022/09/04 14:01:19;;;;;;;;;;;;;;;;;;;;;
2022/09/04 14:04:25;;;;;;;;;3.00;3.00;;;;;;;;5036246;28;73627;-87
2022/09/04 14:07:06;;;;;;;;;4.00;4.00;;;;;;;;5036653;28;45582;-87
2022/09/04 14:09:35;;;;;;;;;5.33;5.33;;;;;;;;5036734;28;45447;-86
2022/09/04 14:12:37;;;;;;;;;18.67;18.00;;;;;;;;5043275;28;45516;-87
2022/09/04 14:15:27;;;;;;;;;5.00;5.00;;;;;;;;5023706;28;46959;-90
2022/09/04 14:18:17;;;;;;;;;3.33;3.33;;;;;;;;5028373;28;45327;-87
2022/09/04 14:21:12;;;;;;;;;3.67;3.67;;;;;;;;5025087;28;45112;-88
2022/09/04 14:24:27;;;;;;;;;4.00;4.00;;;;;;;;5016526;28;45520;-84
2022/09/04 14:45:39;;;;;;;;;1.67;1.67;;;;;;;;4911403;28;45499;-84
2022/09/04 14:48:32;;;;;;;;;4.00;4.00;;;;;;;;4898184;28;45546;-85
2022/09/04 14:54:28;;;;;;;;;4.33;3.33;;;;;;;;4899599;28;45470;-84
2022/09/04 15:00:50;;;;;;;;;5.67;4.33;;;;;;;;4901197;28;45775;-83
2022/09/04 15:03:37;;;;;;;;;4.67;4.33;;;;;;;;4888881;28;45857;-84
2022/09/04 15:07:09;;;;;;;;;;;;;;;;;;;;;
2022/09/04 15:10:00;;;;;;;;;4.00;3.00;;;;;;;;4851503;29;45709;-85
2022/09/04 15:16:14;;;;;;;;;;;;;;;;;;;;;
2022/09/04 15:25:32;;;;;;;;;;;;;;;;;;;;;
2022/09/04 15:28:37;;;;;;;;;;;;;;;;;;;;;
2022/09/04 15:37:19;;;;;;;;;2.00;2.00;;;;;;;;4841192;29;45796;-80
2022/09/04 15:39:53;;;;;;;;;2.00;2.00;;;;;;;;4910294;28;46344;-79
2022/09/04 15:42:37;;;;;;;;;4.00;2.67;;;;;;;;4917235;28;45479;-82
2022/09/04 15:45:23;;;;;;;;;3.33;2.33;;;;;;;;4939375;28;45553;-84
2022/09/04 15:47:54;;;;;;;;;2.33;2.33;;;;;;;;4986502;28;46429;-79
2022/09/04 15:50:24;;;;;;;;;5.00;4.00;;;;;;;;4987418;28;47975;-81
2022/09/04 15:53:21;;;;;;;;;2.33;2.33;;;;;;;;5004760;28;45933;-81
2022/09/04 15:55:49;;;;;;;;;4.00;3.00;;;;;;;;4987611;28;45893;-83
2022/09/04 15:58:35;;;;;;;;;4.25;3.50;;;;;;;;4998502;28;45549;-87
2022/09/04 16:01:07;;;;;;;;;2.33;2.33;;;;;;;;4983611;28;47044;-86
2022/09/04 16:03:35;;;;;;;;;2.00;2.00;;;;;;;;4987439;28;45461;-83
2022/09/04 16:06:28;;;;;;;;;3.33;3.00;;;;;;;;4971538;28;45927;-85
2022/09/04 16:09:04;;;;;;;;;3.00;3.00;;;;;;;;4977245;28;45560;-82
2022/09/04 16:11:44;;;;;;;;;4.00;2.00;;;;;;;;4993024;28;46085;-85
2022/09/04 16:14:26;;;;;;;;;4.00;3.33;;;;;;;;4995021;28;45444;-82
2022/09/04 16:17:01;;;;;;;;;4.00;2.33;;;;;;;;4989842;28;45920;-83
2022/09/04 16:19:32;;;;;;;;;2.00;2.00;;;;;;;;4970040;28;45845;-81
2022/09/04 16:22:25;;;;;;;;;2.67;2.67;;;;;;;;4983287;28;47361;-82
2022/09/04 16:25:58;;;;;;;;;1.33;1.33;;;;;;;;5013117;28;45769;-82
2022/09/04 16:28:06;;;;;;;;;2.00;2.00;;;;;;;;5001034;28;45463;-80
2022/09/04 16:30:46;;;;;;;;;4.33;3.00;;;;;;;;4986431;28;46152;-83
2022/09/04 16:33:40;;;;;;;;;3.00;3.00;;;;;;;;4990961;28;46752;-86
2022/09/04 16:36:10;;;;;;;;;2.00;2.00;;;;;;;;5009401;28;45550;-85
2022/09/04 16:38:56;;;;;;;;;3.00;2.67;;;;;;;;4988160;28;45779;-84
2022/09/04 16:41:27;;;;;;;;;4.33;4.33;;;;;;;;5006713;28;45155;-82
2022/09/04 16:44:14;;;;;;;;;4.00;3.33;;;;;;;;5011315;28;45825;-83
2022/09/04 16:46:50;;;;;;;;;2.75;2.75;;;;;;;;4991702;28;46007;-83
2022/09/04 16:49:30;;;;;;;;;2.00;2.00;;;;;;;;5011982;28;45875;-83
2022/09/04 16:52:15;;;;;;;;;4.00;2.67;;;;;;;;4990021;28;45613;-84
2022/09/04 16:54:47;;;;;;;;;4.33;3.00;;;;;;;;5008485;28;46187;-85
2022/09/04 16:57:14;;;;;;;;;3.75;3.75;;;;;;;;5004980;28;46167;-82
2022/09/04 16:59:40;;;;;;;;;2.25;2.25;;;;;;;;5005450;28;45824;-84
2022/09/04 17:02:21;;;;;;;;;4.33;4.33;;;;;;;;5017277;28;45962;-83
2022/09/04 17:04:51;;;;;;;;;3.00;3.00;;;;;;;;5022846;28;45833;-84
2022/09/04 17:07:31;;;;;;;;;4.00;3.00;;;;;;;;5012275;28;45860;-82